createdAt,value
2018-04-24T00:00:10.608Z,19.48
2018-04-24T00:01:10.622Z,19.46
2018-04-24T00:02:10.644Z,19.41
2018-04-24T00:03:10.665Z,19.50
2018-04-24T00:04:10.686Z,19.50
2018-04-24T00:05:10.702Z,19.47
2018-04-24T00:06:10.726Z,19.40
2018-04-24T00:07:10.739Z,19.41
2018-04-24T00:08:10.813Z,19.37
2018-04-24T00:09:10.781Z,19.44
2018-04-24T00:10:10.800Z,19.32
2018-04-24T00:11:10.824Z,19.31
2018-04-24T00:12:10.847Z,19.37
2018-04-24T00:13:10.858Z,19.41
2018-04-24T00:14:10.891Z,19.41
2018-04-24T00:15:10.902Z,19.39
2018-04-24T00:16:10.925Z,19.29
2018-04-24T00:17:10.945Z,19.26
2018-04-24T00:18:10.999Z,19.41
2018-04-24T00:19:10.985Z,19.43
2018-04-24T00:20:11.001Z,19.33
2018-04-24T00:21:11.026Z,19.36
2018-04-24T00:22:11.044Z,19.39
2018-04-24T00:23:11.065Z,19.47
2018-04-24T00:24:11.116Z,19.54
2018-04-24T00:25:11.102Z,19.48
2018-04-24T00:26:11.250Z,19.41
2018-04-24T00:27:11.140Z,19.37
2018-04-24T00:28:11.163Z,19.40
2018-04-24T00:29:11.180Z,19.50
2018-04-24T00:30:11.249Z,19.39
2018-04-24T00:31:11.222Z,19.40
2018-04-24T00:32:11.246Z,19.43
2018-04-24T00:33:11.260Z,19.46
2018-04-24T00:34:11.282Z,19.37
2018-04-24T00:35:11.304Z,19.48
2018-04-24T00:36:11.321Z,19.40
2018-04-24T00:37:11.338Z,19.41
2018-04-24T00:38:11.418Z,19.37
2018-04-24T00:39:11.384Z,19.37
2018-04-24T00:40:11.404Z,19.40
2018-04-24T00:41:11.421Z,19.32
2018-04-24T00:42:11.442Z,19.28
2018-04-24T00:43:11.458Z,19.26
2018-04-24T00:44:11.479Z,19.25
2018-04-24T00:45:11.497Z,19.19
2018-04-24T00:46:11.526Z,19.19
2018-04-24T00:47:11.541Z,19.08
2018-04-24T00:48:11.568Z,19.16
2018-04-24T00:49:11.577Z,19.23
2018-04-24T00:50:11.603Z,19.32
2018-04-24T00:51:11.622Z,19.39
2018-04-24T00:52:11.644Z,19.29
2018-04-24T00:53:11.661Z,19.37
2018-04-24T00:54:11.685Z,19.43
2018-04-24T00:55:11.702Z,19.43
2018-04-24T00:56:11.722Z,19.43
2018-04-24T00:57:11.738Z,19.39
2018-04-24T00:58:11.755Z,19.36
2018-04-24T00:59:11.781Z,19.47
2018-04-24T01:00:11.880Z,19.43
2018-04-24T01:01:11.869Z,19.39
2018-04-24T01:02:11.842Z,19.41
2018-04-24T01:03:11.859Z,19.39
2018-04-24T01:04:11.878Z,19.46
2018-04-24T01:05:11.910Z,19.46
2018-04-24T01:06:11.918Z,19.40
2018-04-24T01:07:11.985Z,19.39
2018-04-24T01:08:11.963Z,19.33
2018-04-24T01:09:11.979Z,19.36
2018-04-24T01:10:11.999Z,19.43
2018-04-24T01:11:12.023Z,19.43
2018-04-24T01:12:12.044Z,19.39
2018-04-24T01:13:12.064Z,19.39
2018-04-24T01:14:12.078Z,19.41
2018-04-24T01:15:12.098Z,19.40
2018-04-24T01:16:12.119Z,19.43
2018-04-24T01:17:12.144Z,19.39
2018-04-24T01:18:12.159Z,19.43
2018-04-24T01:19:12.177Z,19.37
2018-04-24T01:20:12.196Z,19.39
2018-04-24T01:21:12.219Z,19.31
2018-04-24T01:22:12.308Z,19.26
2018-04-24T01:23:12.263Z,19.29
2018-04-24T01:24:12.277Z,19.32
2018-04-24T01:25:12.298Z,19.33
2018-04-24T01:26:12.322Z,19.28
2018-04-24T01:27:12.335Z,19.25
2018-04-24T01:28:12.370Z,19.23
2018-04-24T01:29:12.379Z,19.25
2018-04-24T01:30:12.401Z,19.19
2018-04-24T01:31:12.415Z,19.14
2018-04-24T01:32:12.442Z,19.23
2018-04-24T01:33:12.456Z,19.13
2018-04-24T01:34:12.550Z,19.13
2018-04-24T01:35:12.501Z,19.19
2018-04-24T01:36:12.517Z,19.19
2018-04-24T01:37:12.543Z,19.18
2018-04-24T01:38:12.554Z,19.13
2018-04-24T01:39:12.574Z,19.13
2018-04-24T01:40:12.601Z,19.14
2018-04-24T01:41:12.614Z,19.06
2018-04-24T01:42:12.641Z,19.07
2018-04-24T01:43:12.657Z,18.90
2018-04-24T01:44:12.689Z,18.99
2018-04-24T01:45:12.693Z,19.00
2018-04-24T01:46:12.719Z,18.99
2018-04-24T01:47:12.737Z,18.99
2018-04-24T01:48:12.753Z,19.00
2018-04-24T01:49:12.830Z,18.98
2018-04-24T01:50:12.792Z,18.99
2018-04-24T01:51:12.814Z,18.99
2018-04-24T01:52:12.831Z,19.02
2018-04-24T01:54:12.895Z,18.98
2018-04-24T01:55:12.890Z,18.99
2018-04-24T01:56:12.912Z,19.06
2018-04-24T01:57:12.934Z,19.10
2018-04-24T01:58:12.948Z,19.13
2018-04-24T01:59:12.968Z,19.21
2018-04-24T02:00:12.988Z,19.07
2018-04-24T02:01:13.011Z,19.11
2018-04-24T02:02:13.027Z,19.13
2018-04-24T02:03:13.124Z,19.14
2018-04-24T02:04:13.069Z,19.10
2018-04-24T02:05:13.091Z,19.13
2018-04-24T02:06:13.110Z,19.14
2018-04-24T02:07:13.131Z,19.02
2018-04-24T02:08:13.153Z,19.07
2018-04-24T02:09:13.189Z,19.08
2018-04-24T02:10:13.189Z,19.02
2018-04-24T02:11:13.205Z,19.04
2018-04-24T02:12:13.226Z,19.00
2018-04-24T02:13:13.255Z,19.00
2018-04-24T02:14:13.265Z,19.04
2018-04-24T02:15:13.285Z,18.95
2018-04-24T02:16:13.308Z,18.99
2018-04-24T02:17:13.323Z,19.04
2018-04-24T02:18:13.348Z,18.95
2018-04-24T02:19:13.362Z,18.98
2018-04-24T02:20:13.382Z,18.99
2018-04-24T02:21:13.404Z,18.99
2018-04-24T02:22:13.428Z,18.95
2018-04-24T02:23:13.448Z,18.92
2018-04-24T02:24:13.461Z,18.85
2018-04-24T02:25:13.486Z,18.88
2018-04-24T02:26:13.508Z,18.92
2018-04-24T02:27:13.522Z,18.85
2018-04-24T02:28:13.543Z,18.92
2018-04-24T02:29:13.563Z,18.81
2018-04-24T02:30:13.585Z,18.88
2018-04-24T02:31:13.602Z,18.87
2018-04-24T02:32:13.626Z,18.85
2018-04-24T02:33:13.639Z,18.88
2018-04-24T02:34:13.663Z,18.88
2018-04-24T02:35:13.679Z,18.91
2018-04-24T02:36:13.703Z,18.94
2018-04-24T02:37:13.719Z,18.90
2018-04-24T02:38:13.797Z,18.94
2018-04-24T02:39:13.765Z,18.85
2018-04-24T02:40:13.835Z,18.76
2018-04-24T02:41:13.803Z,18.80
2018-04-24T02:42:13.819Z,18.80
2018-04-24T02:43:13.893Z,18.78
2018-04-24T02:44:13.858Z,18.80
2018-04-24T02:45:13.875Z,18.80
2018-04-24T02:46:13.906Z,18.88
2018-04-24T02:47:13.913Z,18.88
2018-04-24T02:48:13.935Z,18.91
2018-04-24T02:49:14.010Z,18.87
2018-04-24T02:50:13.974Z,18.91
2018-04-24T02:51:13.998Z,18.88
2018-04-24T02:52:14.025Z,18.91
2018-04-24T02:53:14.035Z,18.92
2018-04-24T02:54:14.052Z,18.94
2018-04-24T02:55:14.072Z,18.88
2018-04-24T02:56:14.100Z,19.00
2018-04-24T02:57:14.111Z,18.95
2018-04-24T02:58:14.133Z,18.99
2018-04-24T02:59:14.168Z,19.00
2018-04-24T03:00:14.168Z,18.95
2018-04-24T03:01:14.228Z,18.99
2018-04-24T03:02:14.207Z,19.10
2018-04-24T03:03:14.234Z,19.00
2018-04-24T03:04:14.247Z,19.10
2018-04-24T03:05:14.275Z,19.14
2018-04-24T03:06:14.294Z,19.10
2018-04-24T03:07:14.315Z,19.11
2018-04-24T03:08:14.331Z,19.10
2018-04-24T03:09:14.358Z,19.10
2018-04-24T03:10:14.376Z,19.18
2018-04-24T03:11:14.393Z,19.19
2018-04-24T03:12:14.415Z,19.23
2018-04-24T03:13:14.434Z,19.14
2018-04-24T03:14:14.447Z,19.22
2018-04-24T03:15:14.469Z,19.14
2018-04-24T03:16:14.484Z,19.14
2018-04-24T03:17:14.507Z,19.16
2018-04-24T03:18:14.583Z,19.19
2018-04-24T03:19:14.544Z,19.07
2018-04-24T03:20:14.567Z,19.10
2018-04-24T03:21:14.595Z,19.14
2018-04-24T03:22:14.607Z,19.16
2018-04-24T03:23:14.629Z,19.19
2018-04-24T03:24:14.673Z,19.13
2018-04-24T03:25:14.666Z,19.23
2018-04-24T03:26:14.683Z,19.16
2018-04-24T03:27:14.701Z,19.23
2018-04-24T03:28:14.729Z,19.23
2018-04-24T03:29:14.746Z,19.18
2018-04-24T03:30:14.765Z,19.08
2018-04-24T03:31:14.842Z,19.14
2018-04-24T03:32:14.803Z,19.16
2018-04-24T03:33:14.827Z,19.11
2018-04-24T03:34:14.842Z,19.19
2018-04-24T03:35:14.890Z,19.18
2018-04-24T03:36:14.898Z,19.16
2018-04-24T03:37:14.903Z,19.08
2018-04-24T03:38:14.923Z,19.11
2018-04-24T03:39:14.939Z,19.14
2018-04-24T03:40:14.970Z,19.14
2018-04-24T03:41:15.094Z,19.21
2018-04-24T03:42:15.069Z,19.26
2018-04-24T03:43:15.027Z,19.23
2018-04-24T03:44:15.043Z,19.19
2018-04-24T03:45:15.063Z,19.23
2018-04-24T03:46:15.086Z,19.16
2018-04-24T03:47:15.149Z,19.19
2018-04-24T03:48:15.174Z,19.18
2018-04-24T03:49:15.139Z,19.21
2018-04-24T03:50:15.160Z,19.18
2018-04-24T03:51:15.180Z,19.08
2018-04-24T03:52:15.204Z,19.13
2018-04-24T03:53:15.220Z,19.10
2018-04-24T03:54:15.290Z,19.08
2018-04-24T03:55:15.256Z,19.07
2018-04-24T03:56:15.275Z,18.99
2018-04-24T03:57:15.307Z,19.02
2018-04-24T03:58:15.318Z,19.07
2018-04-24T03:59:15.342Z,19.10
2018-04-24T04:00:15.362Z,18.98
2018-04-24T04:01:15.380Z,19.06
2018-04-24T04:02:15.393Z,19.04
2018-04-24T04:03:15.422Z,18.90
2018-04-24T04:04:15.438Z,18.90
2018-04-24T04:05:15.456Z,18.94
2018-04-24T04:06:15.527Z,18.91
2018-04-24T04:07:15.496Z,18.94
2018-04-24T04:08:15.515Z,18.88
2018-04-24T04:09:15.533Z,18.87
2018-04-24T04:10:15.571Z,18.78
2018-04-24T04:11:15.579Z,18.78
2018-04-24T04:12:15.645Z,18.88
2018-04-24T04:13:15.618Z,18.78
2018-04-24T04:14:15.634Z,18.82
2018-04-24T04:15:15.654Z,18.78
2018-04-24T04:16:15.755Z,18.75
2018-04-24T04:17:15.690Z,18.72
2018-04-24T04:18:15.765Z,18.75
2018-04-24T04:19:15.739Z,18.69
2018-04-24T04:20:15.751Z,18.66
2018-04-24T04:21:15.767Z,18.65
2018-04-24T04:22:15.856Z,18.70
2018-04-24T04:23:15.806Z,18.70
2018-04-24T04:24:15.833Z,18.70
2018-04-24T04:25:15.847Z,18.69
2018-04-24T04:26:15.873Z,18.57
2018-04-24T04:27:15.886Z,18.60
2018-04-24T04:28:15.907Z,18.55
2018-04-24T04:29:15.928Z,18.52
2018-04-24T04:30:15.951Z,18.55
2018-04-24T04:31:15.967Z,18.57
2018-04-24T04:32:15.984Z,18.60
2018-04-24T04:33:16.008Z,18.60
2018-04-24T04:34:16.021Z,18.57
2018-04-24T04:35:16.044Z,18.63
2018-04-24T04:36:16.113Z,18.57
2018-04-24T04:37:16.086Z,18.54
2018-04-24T04:38:16.105Z,18.52
2018-04-24T04:39:16.122Z,18.54
2018-04-24T04:40:16.140Z,18.47
2018-04-24T04:41:16.166Z,18.52
2018-04-24T04:42:16.179Z,18.52
2018-04-24T04:43:16.199Z,18.51
2018-04-24T04:44:16.222Z,18.45
2018-04-24T04:45:16.237Z,18.50
2018-04-24T04:46:16.258Z,18.55
2018-04-24T04:47:16.273Z,18.58
2018-04-24T04:48:16.350Z,18.51
2018-04-24T04:49:16.313Z,18.55
2018-04-24T04:50:16.337Z,18.55
2018-04-24T04:51:16.352Z,18.52
2018-04-24T04:52:16.375Z,18.48
2018-04-24T04:53:16.395Z,18.50
2018-04-24T04:54:16.411Z,18.51
2018-04-24T04:55:16.436Z,18.51
2018-04-24T04:56:16.453Z,18.48
2018-04-24T04:57:16.507Z,18.47
2018-04-24T04:58:16.499Z,18.51
2018-04-24T04:59:16.515Z,18.50
2018-04-24T05:00:16.581Z,18.48
2018-04-24T05:01:16.557Z,18.47
2018-04-24T05:02:16.570Z,18.44
2018-04-24T05:03:16.590Z,18.41
2018-04-24T05:04:16.606Z,18.44
2018-04-24T05:05:16.677Z,18.36
2018-04-24T05:06:16.698Z,18.29
2018-04-24T05:07:16.666Z,18.29
2018-04-24T05:08:16.685Z,18.26
2018-04-24T05:09:16.703Z,18.29
2018-04-24T05:10:16.725Z,18.26
2018-04-24T05:11:16.743Z,18.26
2018-04-24T05:12:16.759Z,18.21
2018-04-24T05:13:16.782Z,18.26
2018-04-24T05:14:16.799Z,18.30
2018-04-24T05:15:16.816Z,18.30
2018-04-24T05:16:16.840Z,18.27
2018-04-24T05:17:16.861Z,18.33
2018-04-24T05:18:16.882Z,18.29
2018-04-24T05:19:16.897Z,18.26
2018-04-24T05:20:16.954Z,18.25
2018-04-24T05:21:16.935Z,18.26
2018-04-24T05:22:16.961Z,18.35
2018-04-24T05:23:16.977Z,18.37
2018-04-24T05:24:16.998Z,18.30
2018-04-24T05:25:17.013Z,18.44
2018-04-24T05:26:17.070Z,18.36
2018-04-24T05:27:17.059Z,18.36
2018-04-24T05:28:17.071Z,18.33
2018-04-24T05:29:17.092Z,18.35
2018-04-24T05:30:17.115Z,18.35
2018-04-24T05:31:17.132Z,18.33
2018-04-24T05:32:17.149Z,18.32
2018-04-24T05:33:17.165Z,18.41
2018-04-24T05:34:17.183Z,18.39
2018-04-24T05:35:17.206Z,18.45
2018-04-24T05:36:17.279Z,18.42
2018-04-24T05:37:17.255Z,18.50
2018-04-24T05:38:17.261Z,18.52
2018-04-24T05:39:17.281Z,18.47
2018-04-24T05:40:17.308Z,18.48
2018-04-24T05:41:17.323Z,18.41
2018-04-24T05:42:17.342Z,18.42
2018-04-24T05:43:17.357Z,18.50
2018-04-24T05:44:17.381Z,18.45
2018-04-24T05:45:17.407Z,18.44
2018-04-24T05:46:17.424Z,18.48
2018-04-24T05:47:17.438Z,18.44
2018-04-24T05:48:17.508Z,18.42
2018-04-24T05:49:17.507Z,18.44
2018-04-24T05:50:17.493Z,18.45
2018-04-24T05:51:17.521Z,18.45
2018-04-24T05:52:17.539Z,18.47
2018-04-24T05:53:17.557Z,18.45
2018-04-24T05:54:17.625Z,18.54
2018-04-24T05:55:17.608Z,18.51
2018-04-24T05:56:17.611Z,18.51
2018-04-24T05:57:17.632Z,18.45
2018-04-24T05:58:17.656Z,18.36
2018-04-24T05:59:17.671Z,18.47
2018-04-24T06:00:17.747Z,18.42
2018-04-24T06:01:17.757Z,18.37
2018-04-24T06:02:17.736Z,18.36
2018-04-24T06:03:17.760Z,18.39
2018-04-24T06:04:17.769Z,18.37
2018-04-24T06:05:17.789Z,18.37
2018-04-24T06:06:17.860Z,18.45
2018-04-24T06:07:17.916Z,18.47
2018-04-24T06:08:17.855Z,18.47
2018-04-24T06:09:17.866Z,18.47
2018-04-24T06:10:17.885Z,18.45
2018-04-24T06:11:17.908Z,18.47
2018-04-24T06:12:17.929Z,18.42
2018-04-24T06:13:18.022Z,18.48
2018-04-24T06:14:17.965Z,18.42
2018-04-24T06:15:17.990Z,18.41
2018-04-24T06:16:18.026Z,18.36
2018-04-24T06:17:18.028Z,18.36
2018-04-24T06:18:18.099Z,18.36
2018-04-24T06:19:18.075Z,18.33
2018-04-24T06:20:18.082Z,18.41
2018-04-24T06:21:18.103Z,18.33
2018-04-24T06:22:18.128Z,18.29
2018-04-24T06:23:18.139Z,18.35
2018-04-24T06:24:18.218Z,18.26
2018-04-24T06:25:18.239Z,18.32
2018-04-24T06:26:18.200Z,18.23
2018-04-24T06:27:18.219Z,18.26
2018-04-24T06:28:18.241Z,18.36
2018-04-24T06:29:18.262Z,18.37
2018-04-24T06:30:18.341Z,18.39
2018-04-24T06:31:18.302Z,18.33
2018-04-24T06:32:18.319Z,18.36
2018-04-24T06:33:18.348Z,18.39
2018-04-24T06:34:18.358Z,18.36
2018-04-24T06:35:18.387Z,18.39
2018-04-24T06:36:18.451Z,18.44
2018-04-24T06:37:18.417Z,18.45
2018-04-24T06:38:18.432Z,18.44
2018-04-24T06:39:18.455Z,18.45
2018-04-24T06:40:18.474Z,18.51
2018-04-24T06:41:18.500Z,18.52
2018-04-24T06:42:18.568Z,18.55
2018-04-24T06:43:18.532Z,18.52
2018-04-24T06:44:18.548Z,18.51
2018-04-24T06:45:18.574Z,18.50
2018-04-24T06:46:18.593Z,18.60
2018-04-24T06:47:18.614Z,18.73
2018-04-24T06:48:18.721Z,18.54
2018-04-24T06:49:18.649Z,18.60
2018-04-24T06:50:18.667Z,18.65
2018-04-24T06:51:18.687Z,18.69
2018-04-24T06:52:18.705Z,18.72
2018-04-24T06:53:18.729Z,18.67
2018-04-24T06:54:18.818Z,18.70
2018-04-24T06:55:18.765Z,18.72
2018-04-24T06:56:18.786Z,18.80
2018-04-24T06:57:18.809Z,18.82
2018-04-24T06:58:18.822Z,18.88
2018-04-24T06:59:18.850Z,18.90
2018-04-24T07:00:18.917Z,18.99
2018-04-24T07:01:18.884Z,19.10
2018-04-24T07:02:18.902Z,19.02
2018-04-24T07:03:18.928Z,19.08
2018-04-24T07:04:18.949Z,19.10
2018-04-24T07:05:18.968Z,19.22
2018-04-24T07:06:19.052Z,19.18
2018-04-24T07:07:19.000Z,19.21
2018-04-24T07:08:19.027Z,19.28
2018-04-24T07:09:19.048Z,19.29
2018-04-24T07:10:19.065Z,19.33
2018-04-24T07:11:19.087Z,19.25
2018-04-24T07:12:19.107Z,19.25
2018-04-24T07:13:19.125Z,19.46
2018-04-24T07:14:19.139Z,19.48
2018-04-24T07:15:19.254Z,19.51
2018-04-24T07:16:19.199Z,19.47
2018-04-24T07:17:19.240Z,19.40
2018-04-24T07:18:19.277Z,19.36
2018-04-24T07:19:19.241Z,19.47
2018-04-24T07:20:19.259Z,19.39
2018-04-24T07:21:19.278Z,19.47
2018-04-24T07:22:19.380Z,19.43
2018-04-24T07:23:19.317Z,19.48
2018-04-24T07:24:19.341Z,19.54
2018-04-24T07:25:19.358Z,19.47
2018-04-24T07:26:19.386Z,19.56
2018-04-24T07:27:19.417Z,19.59
2018-04-24T07:28:19.446Z,19.63
2018-04-24T07:29:19.439Z,19.78
2018-04-24T07:30:19.457Z,19.83
2018-04-24T07:31:19.477Z,19.92
2018-04-24T07:32:19.496Z,19.95
2018-04-24T07:33:19.523Z,20.10
2018-04-24T07:34:19.539Z,20.32
2018-04-24T07:35:19.557Z,20.48
2018-04-24T07:36:19.636Z,20.64
2018-04-24T07:37:19.598Z,20.72
2018-04-24T07:38:19.620Z,20.98
2018-04-24T07:39:19.642Z,20.85
2018-04-24T07:40:19.669Z,21.06
2018-04-24T07:41:19.681Z,21.38
2018-04-24T07:42:19.699Z,21.38
2018-04-24T07:43:19.716Z,21.56
2018-04-24T07:44:19.763Z,21.88
2018-04-24T07:45:19.761Z,21.90
2018-04-24T07:46:19.780Z,21.99
2018-04-24T07:47:19.805Z,22.22
2018-04-24T07:48:19.878Z,22.06
2018-04-24T07:49:19.842Z,22.07
2018-04-24T07:50:19.935Z,22.20
2018-04-24T07:51:19.881Z,22.35
2018-04-24T07:52:19.905Z,22.37
2018-04-24T07:53:19.938Z,22.42
2018-04-24T07:54:19.949Z,22.52
2018-04-24T07:55:19.968Z,21.99
2018-04-24T07:56:19.985Z,22.31
2018-04-24T07:57:20.012Z,22.15
2018-04-24T07:58:20.038Z,22.54
2018-04-24T07:59:20.137Z,22.70
2018-04-24T08:00:20.074Z,22.47
2018-04-24T08:01:20.112Z,22.79
2018-04-24T08:02:20.116Z,22.97
2018-04-24T08:03:20.139Z,22.91
2018-04-24T08:04:20.155Z,23.28
2018-04-24T08:05:20.185Z,23.60
2018-04-24T08:06:20.251Z,23.42
2018-04-24T08:07:20.228Z,23.42
2018-04-24T08:08:20.250Z,23.60
2018-04-24T08:09:20.266Z,23.40
2018-04-24T08:10:20.292Z,23.39
2018-04-24T08:11:20.308Z,23.36
2018-04-24T08:12:20.338Z,23.47
2018-04-24T08:13:20.358Z,23.75
2018-04-24T08:14:20.376Z,23.73
2018-04-24T08:15:20.500Z,23.91
2018-04-24T08:16:20.420Z,23.87
2018-04-24T08:17:20.451Z,24.09
2018-04-24T08:18:20.518Z,24.39
2018-04-24T08:19:20.490Z,24.53
2018-04-24T08:20:20.511Z,24.69
2018-04-24T08:21:20.531Z,24.78
2018-04-24T08:22:20.552Z,24.71
2018-04-24T08:23:20.593Z,24.65
2018-04-24T08:24:20.596Z,24.80
2018-04-24T08:25:20.621Z,24.78
2018-04-24T08:26:20.648Z,24.55
2018-04-24T08:28:20.690Z,25.06
2018-04-24T08:29:20.715Z,24.96
2018-04-24T08:30:20.735Z,25.02
2018-04-24T08:31:20.761Z,24.95
2018-04-24T08:32:20.783Z,24.95
2018-04-24T08:33:20.809Z,24.87
2018-04-24T08:34:20.830Z,24.96
2018-04-24T08:35:20.850Z,25.17
2018-04-24T08:36:20.870Z,25.50
2018-04-24T08:37:20.892Z,25.45
2018-04-24T08:38:20.926Z,25.58
2018-04-24T08:39:20.946Z,25.62
2018-04-24T08:40:20.968Z,25.70
2018-04-24T08:41:20.997Z,25.83
2018-04-24T08:42:21.057Z,25.88
2018-04-24T08:43:21.035Z,25.97
2018-04-24T08:44:21.061Z,25.79
2018-04-24T08:45:21.078Z,25.88
2018-04-24T08:46:21.108Z,26.01
2018-04-24T08:47:21.181Z,25.62
2018-04-24T08:48:21.207Z,25.72
2018-04-24T08:49:21.180Z,25.50
2018-04-24T08:50:21.206Z,25.51
2018-04-24T08:51:21.222Z,25.25
2018-04-24T08:52:21.247Z,25.33
2018-04-24T08:53:21.363Z,25.97
2018-04-24T08:54:21.290Z,26.12
2018-04-24T08:55:21.314Z,26.36
2018-04-24T08:56:21.392Z,26.73
2018-04-24T08:57:21.371Z,26.80
2018-04-24T08:58:21.393Z,26.77
2018-04-24T08:59:21.422Z,26.75
2018-04-24T09:00:21.436Z,26.87
2018-04-24T09:01:21.464Z,26.76
2018-04-24T09:02:21.481Z,26.70
2018-04-24T09:03:21.507Z,26.73
2018-04-24T09:04:21.530Z,26.51
2018-04-24T09:05:21.605Z,26.73
2018-04-24T09:06:21.582Z,26.75
2018-04-24T09:07:21.599Z,26.92
2018-04-24T09:08:21.629Z,26.89
2018-04-24T09:09:21.651Z,26.97
2018-04-24T09:10:21.670Z,27.36
2018-04-24T09:11:21.741Z,27.65
2018-04-24T09:12:21.723Z,27.72
2018-04-24T09:13:21.750Z,27.57
2018-04-24T09:14:21.768Z,27.41
2018-04-24T09:15:21.798Z,27.47
2018-04-24T09:16:21.817Z,27.39
2018-04-24T09:17:21.925Z,27.46
2018-04-24T09:18:21.876Z,27.50
2018-04-24T09:19:21.913Z,27.14
2018-04-24T09:20:21.920Z,27.25
2018-04-24T09:21:21.948Z,27.22
2018-04-24T09:22:21.969Z,27.49
2018-04-24T09:23:22.000Z,27.60
2018-04-24T09:24:22.016Z,27.44
2018-04-24T09:25:22.040Z,27.47
2018-04-24T09:26:22.066Z,27.51
2018-04-24T09:27:22.091Z,27.85
2018-04-24T09:28:22.115Z,28.15
2018-04-24T09:29:22.139Z,28.29
2018-04-24T09:30:22.163Z,28.25
2018-04-24T09:31:22.189Z,28.66
2018-04-24T09:32:22.211Z,28.88
2018-04-24T09:33:22.287Z,28.77
2018-04-24T09:34:22.258Z,28.83
2018-04-24T09:35:22.340Z,28.90
2018-04-24T09:36:22.316Z,28.83
2018-04-24T09:37:22.342Z,28.81
2018-04-24T09:38:22.363Z,28.58
2018-04-24T09:39:22.399Z,28.59
2018-04-24T09:40:22.415Z,28.55
2018-04-24T09:41:22.495Z,28.51
2018-04-24T09:42:22.517Z,28.00
2018-04-24T09:43:22.491Z,28.07
2018-04-24T09:44:22.518Z,28.52
2018-04-24T09:45:22.543Z,28.78
2018-04-24T09:46:22.568Z,29.06
2018-04-24T09:47:22.596Z,28.77
2018-04-24T09:48:22.649Z,28.30
2018-04-24T09:49:22.680Z,28.52
2018-04-24T09:50:22.667Z,27.85
2018-04-24T09:51:22.714Z,28.06
2018-04-24T09:52:22.724Z,28.18
2018-04-24T09:53:22.748Z,28.34
2018-04-24T09:54:22.773Z,28.66
2018-04-24T09:55:22.796Z,28.55
2018-04-24T09:56:22.824Z,28.51
2018-04-24T09:57:22.843Z,29.00
2018-04-24T09:58:22.875Z,29.16
2018-04-24T09:59:22.999Z,29.58
2018-04-24T10:00:22.926Z,29.70
2018-04-24T10:01:22.946Z,29.18
2018-04-24T10:02:22.971Z,29.27
2018-04-24T10:03:23.007Z,28.92
2018-04-24T10:04:23.030Z,28.58
2018-04-24T10:05:23.146Z,29.08
2018-04-24T10:06:23.079Z,29.02
2018-04-24T10:07:23.100Z,29.27
2018-04-24T10:08:23.131Z,29.39
2018-04-24T10:09:23.154Z,29.12
2018-04-24T10:10:23.188Z,29.30
2018-04-24T10:11:23.290Z,29.70
2018-04-24T10:12:23.237Z,29.61
2018-04-24T10:13:23.286Z,29.19
2018-04-24T10:14:23.288Z,29.30
2018-04-24T10:15:23.315Z,29.46
2018-04-24T10:16:23.391Z,29.30
2018-04-24T10:17:23.401Z,29.06
2018-04-24T10:18:23.394Z,29.30
2018-04-24T10:19:23.415Z,29.21
2018-04-24T10:20:23.443Z,29.27
2018-04-24T10:21:23.466Z,28.93
2018-04-24T10:22:23.494Z,29.36
2018-04-24T10:23:23.521Z,29.37
2018-04-24T10:24:23.548Z,29.09
2018-04-24T10:25:23.572Z,28.89
2018-04-24T10:26:23.600Z,28.54
2018-04-24T10:27:23.636Z,28.83
2018-04-24T10:28:23.650Z,28.98
2018-04-24T10:29:23.676Z,28.98
2018-04-24T10:30:23.698Z,29.04
2018-04-24T10:31:23.740Z,29.00
2018-04-24T10:32:23.751Z,29.18
2018-04-24T10:33:23.783Z,29.36
2018-04-24T10:34:23.804Z,29.52
2018-04-24T10:35:23.882Z,28.86
2018-04-24T10:36:23.929Z,29.12
2018-04-24T10:37:23.977Z,28.85
2018-04-24T10:38:23.912Z,29.18
2018-04-24T10:39:23.935Z,29.43
2018-04-24T10:40:23.968Z,30.08
2018-04-24T10:41:23.988Z,30.38
2018-04-24T10:42:24.013Z,30.23
2018-04-24T10:43:24.039Z,30.01
2018-04-24T10:44:24.065Z,30.07
2018-04-24T10:45:24.090Z,29.95
2018-04-24T10:46:24.116Z,29.89
2018-04-24T10:47:24.146Z,30.23
2018-04-24T10:48:24.202Z,29.68
2018-04-24T10:49:24.197Z,29.90
2018-04-24T10:50:24.226Z,30.00
2018-04-24T10:51:24.253Z,29.34
2018-04-24T10:52:24.281Z,29.41
2018-04-24T10:53:24.307Z,29.90
2018-04-24T10:54:24.418Z,29.76
2018-04-24T10:55:24.352Z,30.04
2018-04-24T10:56:24.383Z,30.15
2018-04-24T10:57:24.411Z,30.58
2018-04-24T10:58:24.433Z,30.57
2018-04-24T10:59:24.609Z,30.54
2018-04-24T11:00:24.570Z,30.39
2018-04-24T11:01:24.513Z,30.24
2018-04-24T11:02:24.536Z,30.15
2018-04-24T11:03:24.566Z,29.85
2018-04-24T11:04:24.591Z,30.02
2018-04-24T11:05:24.680Z,30.10
2018-04-24T11:06:24.648Z,30.26
2018-04-24T11:07:24.672Z,29.98
2018-04-24T11:08:24.698Z,30.34
2018-04-24T11:09:24.727Z,30.45
2018-04-24T11:10:24.758Z,30.67
2018-04-24T11:11:24.786Z,30.24
2018-04-24T11:12:24.808Z,29.92
2018-04-24T11:13:24.833Z,30.01
2018-04-24T11:14:24.857Z,29.82
2018-04-24T11:15:24.887Z,29.70
2018-04-24T11:16:24.911Z,30.39
2018-04-24T11:17:24.979Z,30.24
2018-04-24T11:18:24.966Z,30.46
2018-04-24T11:19:24.994Z,30.47
2018-04-24T11:20:25.022Z,30.49
2018-04-24T11:21:25.074Z,30.77
2018-04-24T11:22:25.075Z,30.76
2018-04-24T11:23:25.110Z,31.43
2018-04-24T11:24:25.124Z,30.76
2018-04-24T11:25:25.167Z,30.91
2018-04-24T11:26:25.180Z,30.88
2018-04-24T11:27:25.212Z,30.86
2018-04-24T11:28:25.252Z,31.04
2018-04-24T11:29:25.265Z,31.14
2018-04-24T11:30:25.312Z,30.76
2018-04-24T11:31:25.311Z,30.45
2018-04-24T11:32:25.388Z,30.64
2018-04-24T11:33:25.373Z,31.16
2018-04-24T11:34:25.483Z,30.86
2018-04-24T11:35:25.473Z,31.06
2018-04-24T11:36:25.453Z,30.43
2018-04-24T11:37:25.477Z,29.71
2018-04-24T11:38:25.509Z,29.34
2018-04-24T11:39:25.563Z,29.08
2018-04-24T11:40:25.560Z,29.51
2018-04-24T11:41:25.730Z,29.83
2018-04-24T11:42:25.613Z,30.35
2018-04-24T11:43:25.641Z,30.77
2018-04-24T11:44:25.672Z,31.39
2018-04-24T11:45:25.725Z,31.43
2018-04-24T11:46:25.722Z,30.94
2018-04-24T11:47:25.746Z,30.77
2018-04-24T11:48:25.777Z,30.79
2018-04-24T11:49:25.800Z,30.73
2018-04-24T11:50:25.829Z,31.14
2018-04-24T11:51:25.859Z,31.19
2018-04-24T11:52:25.887Z,31.21
2018-04-24T11:53:25.919Z,31.04
2018-04-24T11:54:25.940Z,30.58
2018-04-24T11:55:25.967Z,30.16
2018-04-24T11:56:26.010Z,30.38
2018-04-24T11:57:26.021Z,29.83
2018-04-24T11:58:26.050Z,30.39
2018-04-24T11:59:26.081Z,30.89
2018-04-24T12:00:26.098Z,31.14
2018-04-24T12:01:26.132Z,31.31
2018-04-24T12:02:26.156Z,31.61
2018-04-24T12:03:26.187Z,31.36
2018-04-24T12:04:26.212Z,30.94
2018-04-24T12:05:26.234Z,31.38
2018-04-24T12:06:26.268Z,31.41
2018-04-24T12:07:26.291Z,31.20
2018-04-24T12:08:26.317Z,31.48
2018-04-24T12:09:26.344Z,31.72
2018-04-24T12:10:26.370Z,31.80
2018-04-24T12:11:26.401Z,32.00
2018-04-24T12:12:26.429Z,31.80
2018-04-24T12:13:26.498Z,31.48
2018-04-24T12:14:26.478Z,31.62
2018-04-24T12:15:26.517Z,31.75
2018-04-24T12:16:26.540Z,31.72
2018-04-24T12:17:26.619Z,31.70
2018-04-24T12:18:26.590Z,31.53
2018-04-24T12:19:26.706Z,31.50
2018-04-24T12:21:26.671Z,30.75
2018-04-24T12:22:26.705Z,30.84
2018-04-24T12:23:26.789Z,30.42
2018-04-24T12:24:26.805Z,30.88
2018-04-24T12:25:26.784Z,31.41
2018-04-24T12:26:26.810Z,31.61
2018-04-24T12:27:26.837Z,30.84
2018-04-24T12:28:26.874Z,31.07
2018-04-24T12:29:26.899Z,31.21
2018-04-24T12:30:26.973Z,31.23
2018-04-24T12:31:26.946Z,31.39
2018-04-24T12:32:26.981Z,31.50
2018-04-24T12:33:27.001Z,31.68
2018-04-24T12:34:27.035Z,31.69
2018-04-24T12:35:27.063Z,32.07
2018-04-24T12:36:27.137Z,31.99
2018-04-24T12:37:27.117Z,32.03
2018-04-24T12:38:27.183Z,32.19
2018-04-24T12:39:27.177Z,31.75
2018-04-24T12:40:27.198Z,31.65
2018-04-24T12:41:27.224Z,32.00
2018-04-24T12:42:27.386Z,31.85
2018-04-24T12:43:27.281Z,31.51
2018-04-24T12:44:27.309Z,31.72
2018-04-24T12:45:27.334Z,32.03
2018-04-24T12:46:27.366Z,32.07
2018-04-24T12:47:27.444Z,32.19
2018-04-24T12:48:27.424Z,32.29
2018-04-24T12:49:27.452Z,32.55
2018-04-24T12:50:27.478Z,32.59
2018-04-24T12:51:27.508Z,32.75
2018-04-24T12:52:27.536Z,32.74
2018-04-24T12:53:27.617Z,31.93
2018-04-24T12:54:27.592Z,31.62
2018-04-24T12:55:27.616Z,31.61